Milton, Utah
Current Conditions -  °F | °C
As of 11:58 AM on Monday 20 Oct 2014 (Local Time) from KHIF Reporting Station
Clear Clear  
Wind Chill: 67°   Ceiling: Unl
Heat Index: 67°   Visibility: 10mi
Dew Point: 35°   Wind: 7mph
Humidity: 31%   Direction: 110°ESE
Pressure: 30.07"   Gusts: NA
Location:  41.0884°N, 111.576°W
Report Text: KHIF 201758Z AUTO 11006KT 10SM CLR 20/02 A3007 RMK AO2 SLP140 T01960018 10196 20093 50000
Loading
Personal Weather Stations






























Interactive Weather Map
Tropical Storm Tracking
New forecast layout! Learn more

10-Day Weather Forecast

Advertisements
Track Severe Weather on mobile